sensor_id;sensor_type;location;lat;lon;timestamp;P1;durP1;ratioP1;P2;durP2;ratioP2
5981;SDS011;3018;48.730;9.336;2023-05-16T00:00:22;6.68;;;5.75;;
5981;SDS011;3018;48.730;9.336;2023-05-16T00:02:49;6.55;;;5.93;;
5981;SDS011;3018;48.730;9.336;2023-05-16T00:05:15;6.38;;;5.78;;
5981;SDS011;3018;48.730;9.336;2023-05-16T00:07:42;6.68;;;6.07;;
5981;SDS011;3018;48.730;9.336;2023-05-16T00:10:09;6.55;;;6.00;;
5981;SDS011;3018;48.730;9.336;2023-05-16T00:12:36;7.05;;;6.45;;
5981;SDS011;3018;48.730;9.336;2023-05-16T00:15:03;6.35;;;5.85;;
5981;SDS011;3018;48.730;9.336;2023-05-16T00:17:31;7.07;;;6.38;;
5981;SDS011;3018;48.730;9.336;2023-05-16T00:19:57;6.85;;;6.38;;
5981;SDS011;3018;48.730;9.336;2023-05-16T00:22:24;7.38;;;6.78;;
5981;SDS011;3018;48.730;9.336;2023-05-16T00:24:51;7.03;;;6.47;;
5981;SDS011;3018;48.730;9.336;2023-05-16T00:27:17;9.32;;;7.38;;
5981;SDS011;3018;48.730;9.336;2023-05-16T00:29:43;10.07;;;7.32;;
5981;SDS011;3018;48.730;9.336;2023-05-16T00:32:09;8.38;;;7.43;;
5981;SDS011;3018;48.730;9.336;2023-05-16T00:34:37;8.20;;;7.60;;
5981;SDS011;3018;48.730;9.336;2023-05-16T00:37:03;8.95;;;8.15;;
5981;SDS011;3018;48.730;9.336;2023-05-16T00:39:30;9.10;;;8.23;;
5981;SDS011;3018;48.730;9.336;2023-05-16T00:41:56;9.50;;;8.50;;
5981;SDS011;3018;48.730;9.336;2023-05-16T00:44:22;8.68;;;7.88;;
5981;SDS011;3018;48.730;9.336;2023-05-16T00:46:49;9.82;;;8.93;;
5981;SDS011;3018;48.730;9.336;2023-05-16T00:49:15;9.57;;;8.68;;
5981;SDS011;3018;48.730;9.336;2023-05-16T00:51:43;10.32;;;9.27;;
5981;SDS011;3018;48.730;9.336;2023-05-16T00:54:09;10.93;;;9.90;;
5981;SDS011;3018;48.730;9.336;2023-05-16T00:56:36;10.85;;;9.77;;
5981;SDS011;3018;48.730;9.336;2023-05-16T00:59:03;9.93;;;9.00;;
5981;SDS011;3018;48.730;9.336;2023-05-16T01:01:29;10.90;;;8.80;;
5981;SDS011;3018;48.730;9.336;2023-05-16T01:03:55;10.98;;;10.05;;
5981;SDS011;3018;48.730;9.336;2023-05-16T01:06:22;10.57;;;9.65;;
5981;SDS011;3018;48.730;9.336;2023-05-16T01:08:49;11.52;;;10.38;;
5981;SDS011;3018;48.730;9.336;2023-05-16T01:11:17;10.43;;;9.38;;
5981;SDS011;3018;48.730;9.336;2023-05-16T01:13:47;9.98;;;9.05;;
5981;SDS011;3018;48.730;9.336;2023-05-16T01:16:18;9.32;;;8.50;;
5981;SDS011;3018;48.730;9.336;2023-05-16T01:18:48;10.18;;;9.23;;
5981;SDS011;3018;48.730;9.336;2023-05-16T01:21:18;11.60;;;8.52;;
5981;SDS011;3018;48.730;9.336;2023-05-16T01:23:53;11.15;;;8.63;;
5981;SDS011;3018;48.730;9.336;2023-05-16T01:26:27;9.73;;;8.73;;
5981;SDS011;3018;48.730;9.336;2023-05-16T01:28:54;9.80;;;8.80;;
5981;SDS011;3018;48.730;9.336;2023-05-16T01:31:21;8.80;;;8.02;;
5981;SDS011;3018;48.730;9.336;2023-05-16T01:33:47;8.88;;;8.15;;
5981;SDS011;3018;48.730;9.336;2023-05-16T01:36:16;9.52;;;8.73;;
5981;SDS011;3018;48.730;9.336;2023-05-16T01:38:48;9.50;;;8.68;;
5981;SDS011;3018;48.730;9.336;2023-05-16T01:41:22;10.15;;;8.68;;
5981;SDS011;3018;48.730;9.336;2023-05-16T01:43:52;8.88;;;8.02;;
5981;SDS011;3018;48.730;9.336;2023-05-16T01:46:20;8.18;;;7.47;;
5981;SDS011;3018;48.730;9.336;2023-05-16T01:48:50;9.65;;;8.60;;
5981;SDS011;3018;48.730;9.336;2023-05-16T01:51:18;9.38;;;8.57;;
5981;SDS011;3018;48.730;9.336;2023-05-16T01:53:46;9.63;;;8.85;;
5981;SDS011;3018;48.730;9.336;2023-05-16T01:56:14;10.05;;;9.15;;
5981;SDS011;3018;48.730;9.336;2023-05-16T01:58:40;10.10;;;9.05;;
5981;SDS011;3018;48.730;9.336;2023-05-16T02:01:08;10.13;;;9.15;;
5981;SDS011;3018;48.730;9.336;2023-05-16T02:03:35;9.57;;;8.68;;
5981;SDS011;3018;48.730;9.336;2023-05-16T02:06:01;11.73;;;9.65;;
5981;SDS011;3018;48.730;9.336;2023-05-16T02:08:28;10.10;;;9.23;;
5981;SDS011;3018;48.730;9.336;2023-05-16T02:10:55;10.55;;;9.55;;
5981;SDS011;3018;48.730;9.336;2023-05-16T02:13:21;11.23;;;10.13;;
5981;SDS011;3018;48.730;9.336;2023-05-16T02:15:47;11.40;;;10.32;;
5981;SDS011;3018;48.730;9.336;2023-05-16T02:18:15;11.50;;;10.30;;
5981;SDS011;3018;48.730;9.336;2023-05-16T02:20:42;11.00;;;10.10;;
5981;SDS011;3018;48.730;9.336;2023-05-16T02:23:09;11.13;;;9.82;;
5981;SDS011;3018;48.730;9.336;2023-05-16T02:25:35;12.43;;;10.27;;
5981;SDS011;3018;48.730;9.336;2023-05-16T02:28:01;10.63;;;9.68;;
5981;SDS011;3018;48.730;9.336;2023-05-16T02:30:28;11.57;;;10.38;;
5981;SDS011;3018;48.730;9.336;2023-05-16T02:32:54;10.50;;;9.50;;
5981;SDS011;3018;48.730;9.336;2023-05-16T02:35:22;11.20;;;9.20;;
5981;SDS011;3018;48.730;9.336;2023-05-16T02:37:48;10.70;;;9.80;;
5981;SDS011;3018;48.730;9.336;2023-05-16T02:40:15;10.38;;;9.48;;
5981;SDS011;3018;48.730;9.336;2023-05-16T02:42:41;9.85;;;8.95;;
5981;SDS011;3018;48.730;9.336;2023-05-16T02:45:07;11.27;;;9.15;;
5981;SDS011;3018;48.730;9.336;2023-05-16T02:47:34;10.85;;;9.73;;
5981;SDS011;3018;48.730;9.336;2023-05-16T02:50:00;12.48;;;10.00;;
5981;SDS011;3018;48.730;9.336;2023-05-16T02:52:28;12.25;;;9.77;;
5981;SDS011;3018;48.730;9.336;2023-05-16T02:54:55;11.55;;;9.45;;
5981;SDS011;3018;48.730;9.336;2023-05-16T02:57:21;10.43;;;9.43;;
5981;SDS011;3018;48.730;9.336;2023-05-16T02:59:47;13.73;;;11.30;;
5981;SDS011;3018;48.730;9.336;2023-05-16T03:02:13;11.90;;;10.90;;
5981;SDS011;3018;48.730;9.336;2023-05-16T03:04:40;12.77;;;11.20;;
5981;SDS011;3018;48.730;9.336;2023-05-16T03:07:06;12.27;;;11.05;;
5981;SDS011;3018;48.730;9.336;2023-05-16T03:09:33;11.40;;;10.30;;
5981;SDS011;3018;48.730;9.336;2023-05-16T03:12:00;15.00;;;11.05;;
5981;SDS011;3018;48.730;9.336;2023-05-16T03:14:26;11.98;;;10.73;;
5981;SDS011;3018;48.730;9.336;2023-05-16T03:16:52;11.40;;;10.40;;
5981;SDS011;3018;48.730;9.336;2023-05-16T03:19:18;11.50;;;10.20;;
5981;SDS011;3018;48.730;9.336;2023-05-16T03:21:45;11.77;;;10.57;;
5981;SDS011;3018;48.730;9.336;2023-05-16T03:24:11;12.30;;;9.95;;
5981;SDS011;3018;48.730;9.336;2023-05-16T03:26:38;11.88;;;10.80;;
5981;SDS011;3018;48.730;9.336;2023-05-16T03:29:05;12.85;;;10.55;;
5981;SDS011;3018;48.730;9.336;2023-05-16T03:31:31;11.73;;;10.02;;
5981;SDS011;3018;48.730;9.336;2023-05-16T03:33:57;17.02;;;12.77;;
5981;SDS011;3018;48.730;9.336;2023-05-16T03:36:23;18.13;;;13.93;;
5981;SDS011;3018;48.730;9.336;2023-05-16T03:38:50;12.98;;;11.60;;
5981;SDS011;3018;48.730;9.336;2023-05-16T03:41:16;14.38;;;11.85;;
5981;SDS011;3018;48.730;9.336;2023-05-16T03:43:44;11.40;;;10.30;;
5981;SDS011;3018;48.730;9.336;2023-05-16T03:46:10;10.90;;;9.73;;
5981;SDS011;3018;48.730;9.336;2023-05-16T03:48:36;12.40;;;9.80;;
5981;SDS011;3018;48.730;9.336;2023-05-16T03:51:03;10.30;;;9.38;;
5981;SDS011;3018;48.730;9.336;2023-05-16T03:53:29;11.27;;;10.13;;
5981;SDS011;3018;48.730;9.336;2023-05-16T03:55:55;11.60;;;10.45;;
5981;SDS011;3018;48.730;9.336;2023-05-16T03:58:21;11.40;;;10.18;;
5981;SDS011;3018;48.730;9.336;2023-05-16T04:00:49;10.73;;;9.50;;
5981;SDS011;3018;48.730;9.336;2023-05-16T04:03:15;12.57;;;10.52;;
5981;SDS011;3018;48.730;9.336;2023-05-16T04:05:42;14.48;;;9.85;;
5981;SDS011;3018;48.730;9.336;2023-05-16T04:08:08;12.40;;;11.18;;
5981;SDS011;3018;48.730;9.336;2023-05-16T04:10:35;11.95;;;10.75;;
5981;SDS011;3018;48.730;9.336;2023-05-16T04:13:01;13.07;;;9.73;;
5981;SDS011;3018;48.730;9.336;2023-05-16T04:15:27;11.50;;;10.10;;
5981;SDS011;3018;48.730;9.336;2023-05-16T04:17:55;11.48;;;10.13;;
5981;SDS011;3018;48.730;9.336;2023-05-16T04:20:21;12.00;;;10.88;;
5981;SDS011;3018;48.730;9.336;2023-05-16T04:22:47;11.85;;;10.57;;
5981;SDS011;3018;48.730;9.336;2023-05-16T04:25:14;13.43;;;11.30;;
5981;SDS011;3018;48.730;9.336;2023-05-16T04:27:40;11.25;;;10.15;;
5981;SDS011;3018;48.730;9.336;2023-05-16T04:30:07;12.10;;;10.98;;
5981;SDS011;3018;48.730;9.336;2023-05-16T04:32:35;11.23;;;10.23;;
5981;SDS011;3018;48.730;9.336;2023-05-16T04:35:03;13.00;;;10.60;;
5981;SDS011;3018;48.730;9.336;2023-05-16T04:37:29;10.90;;;9.88;;
5981;SDS011;3018;48.730;9.336;2023-05-16T04:39:55;12.68;;;11.40;;
5981;SDS011;3018;48.730;9.336;2023-05-16T04:42:23;12.63;;;11.32;;
5981;SDS011;3018;48.730;9.336;2023-05-16T04:44:49;11.95;;;10.80;;
5981;SDS011;3018;48.730;9.336;2023-05-16T04:47:15;13.45;;;11.32;;
5981;SDS011;3018;48.730;9.336;2023-05-16T04:49:42;14.35;;;12.82;;
5981;SDS011;3018;48.730;9.336;2023-05-16T04:52:09;13.32;;;12.02;;
5981;SDS011;3018;48.730;9.336;2023-05-16T04:54:36;14.27;;;12.80;;
5981;SDS011;3018;48.730;9.336;2023-05-16T04:57:03;13.10;;;11.73;;
5981;SDS011;3018;48.730;9.336;2023-05-16T04:59:29;14.75;;;13.25;;
5981;SDS011;3018;48.730;9.336;2023-05-16T05:01:56;15.77;;;13.48;;
5981;SDS011;3018;48.730;9.336;2023-05-16T05:04:22;16.25;;;14.18;;
5981;SDS011;3018;48.730;9.336;2023-05-16T05:06:48;20.42;;;14.95;;
5981;SDS011;3018;48.730;9.336;2023-05-16T05:09:16;24.90;;;18.27;;
5981;SDS011;3018;48.730;9.336;2023-05-16T05:11:42;22.67;;;17.45;;
5981;SDS011;3018;48.730;9.336;2023-05-16T05:14:08;36.20;;;25.38;;
5981;SDS011;3018;48.730;9.336;2023-05-16T05:16:35;38.75;;;29.40;;
5981;SDS011;3018;48.730;9.336;2023-05-16T05:19:01;45.42;;;31.80;;
5981;SDS011;3018;48.730;9.336;2023-05-16T05:21:27;49.03;;;33.00;;
5981;SDS011;3018;48.730;9.336;2023-05-16T05:23:54;52.08;;;35.15;;
5981;SDS011;3018;48.730;9.336;2023-05-16T05:26:22;50.75;;;34.53;;
5981;SDS011;3018;48.730;9.336;2023-05-16T05:28:50;50.75;;;34.17;;
5981;SDS011;3018;48.730;9.336;2023-05-16T05:31:16;53.47;;;35.20;;
5981;SDS011;3018;48.730;9.336;2023-05-16T05:33:42;49.58;;;35.65;;
5981;SDS011;3018;48.730;9.336;2023-05-16T05:36:08;51.85;;;33.90;;
5981;SDS011;3018;48.730;9.336;2023-05-16T05:38:35;46.58;;;35.63;;
5981;SDS011;3018;48.730;9.336;2023-05-16T05:41:01;51.10;;;35.17;;
5981;SDS011;3018;48.730;9.336;2023-05-16T05:43:28;48.05;;;34.10;;
5981;SDS011;3018;48.730;9.336;2023-05-16T05:45:55;47.00;;;33.85;;
5981;SDS011;3018;48.730;9.336;2023-05-16T05:48:21;47.42;;;33.20;;
5981;SDS011;3018;48.730;9.336;2023-05-16T05:50:47;47.72;;;33.90;;
5981;SDS011;3018;48.730;9.336;2023-05-16T05:53:14;44.75;;;32.13;;
5981;SDS011;3018;48.730;9.336;2023-05-16T05:55:40;43.53;;;30.88;;
5981;SDS011;3018;48.730;9.336;2023-05-16T05:58:06;43.20;;;30.58;;
5981;SDS011;3018;48.730;9.336;2023-05-16T06:00:34;40.85;;;29.25;;
5981;SDS011;3018;48.730;9.336;2023-05-16T06:03:00;39.55;;;29.42;;
5981;SDS011;3018;48.730;9.336;2023-05-16T06:05:26;40.65;;;28.98;;
5981;SDS011;3018;48.730;9.336;2023-05-16T06:07:53;42.10;;;29.08;;
5981;SDS011;3018;48.730;9.336;2023-05-16T06:10:19;42.95;;;30.35;;
5981;SDS011;3018;48.730;9.336;2023-05-16T06:12:45;39.28;;;28.60;;
5981;SDS011;3018;48.730;9.336;2023-05-16T06:15:12;43.30;;;29.15;;
5981;SDS011;3018;48.730;9.336;2023-05-16T06:17:39;38.83;;;27.67;;
5981;SDS011;3018;48.730;9.336;2023-05-16T06:20:06;38.05;;;28.55;;
5981;SDS011;3018;48.730;9.336;2023-05-16T06:22:33;39.80;;;27.98;;
5981;SDS011;3018;48.730;9.336;2023-05-16T06:24:59;35.40;;;28.02;;
5981;SDS011;3018;48.730;9.336;2023-05-16T06:27:25;36.15;;;26.35;;
5981;SDS011;3018;48.730;9.336;2023-05-16T06:29:52;36.65;;;26.98;;
5981;SDS011;3018;48.730;9.336;2023-05-16T06:32:18;33.97;;;25.75;;
5981;SDS011;3018;48.730;9.336;2023-05-16T06:34:46;34.58;;;25.90;;
5981;SDS011;3018;48.730;9.336;2023-05-16T06:37:12;35.50;;;26.35;;
5981;SDS011;3018;48.730;9.336;2023-05-16T06:39:38;38.05;;;27.40;;
5981;SDS011;3018;48.730;9.336;2023-05-16T06:42:04;33.65;;;25.75;;
5981;SDS011;3018;48.730;9.336;2023-05-16T06:44:31;38.60;;;24.92;;
5981;SDS011;3018;48.730;9.336;2023-05-16T06:46:57;32.38;;;24.40;;
5981;SDS011;3018;48.730;9.336;2023-05-16T06:49:23;33.90;;;23.98;;
5981;SDS011;3018;48.730;9.336;2023-05-16T06:51:51;31.00;;;22.85;;
5981;SDS011;3018;48.730;9.336;2023-05-16T06:54:17;34.60;;;23.50;;
5981;SDS011;3018;48.730;9.336;2023-05-16T06:56:44;31.83;;;23.15;;
5981;SDS011;3018;48.730;9.336;2023-05-16T06:59:10;29.23;;;22.60;;
5981;SDS011;3018;48.730;9.336;2023-05-16T07:01:36;28.73;;;23.02;;
5981;SDS011;3018;48.730;9.336;2023-05-16T07:04:02;28.90;;;21.67;;
5981;SDS011;3018;48.730;9.336;2023-05-16T07:06:29;30.88;;;22.15;;
5981;SDS011;3018;48.730;9.336;2023-05-16T07:08:56;27.95;;;21.58;;
5981;SDS011;3018;48.730;9.336;2023-05-16T07:11:22;29.10;;;21.40;;
5981;SDS011;3018;48.730;9.336;2023-05-16T07:13:49;25.85;;;20.98;;
5981;SDS011;3018;48.730;9.336;2023-05-16T07:16:15;29.33;;;20.92;;
5981;SDS011;3018;48.730;9.336;2023-05-16T07:18:41;26.67;;;20.25;;
5981;SDS011;3018;48.730;9.336;2023-05-16T07:21:07;23.80;;;19.90;;
5981;SDS011;3018;48.730;9.336;2023-05-16T07:23:34;25.83;;;19.60;;
5981;SDS011;3018;48.730;9.336;2023-05-16T07:26:01;22.55;;;19.25;;
5981;SDS011;3018;48.730;9.336;2023-05-16T07:28:28;23.95;;;18.58;;
5981;SDS011;3018;48.730;9.336;2023-05-16T07:30:54;24.83;;;19.17;;
5981;SDS011;3018;48.730;9.336;2023-05-16T07:33:22;23.77;;;17.23;;
5981;SDS011;3018;48.730;9.336;2023-05-16T07:35:48;27.65;;;19.10;;
5981;SDS011;3018;48.730;9.336;2023-05-16T07:38:15;24.80;;;17.73;;
5981;SDS011;3018;48.730;9.336;2023-05-16T07:40:41;18.75;;;16.65;;
5981;SDS011;3018;48.730;9.336;2023-05-16T07:43:09;21.95;;;17.10;;
5981;SDS011;3018;48.730;9.336;2023-05-16T07:45:35;20.83;;;17.00;;
5981;SDS011;3018;48.730;9.336;2023-05-16T07:48:01;20.02;;;17.05;;
5981;SDS011;3018;48.730;9.336;2023-05-16T07:50:27;19.33;;;16.48;;
5981;SDS011;3018;48.730;9.336;2023-05-16T07:52:54;22.00;;;15.52;;
5981;SDS011;3018;48.730;9.336;2023-05-16T07:55:20;15.48;;;13.88;;
5981;SDS011;3018;48.730;9.336;2023-05-16T07:57:47;15.68;;;13.85;;
5981;SDS011;3018;48.730;9.336;2023-05-16T08:00:15;14.85;;;13.32;;
5981;SDS011;3018;48.730;9.336;2023-05-16T08:02:42;16.45;;;14.63;;
5981;SDS011;3018;48.730;9.336;2023-05-16T08:05:08;18.10;;;15.90;;
5981;SDS011;3018;48.730;9.336;2023-05-16T08:07:34;17.55;;;15.02;;
5981;SDS011;3018;48.730;9.336;2023-05-16T08:10:01;19.15;;;15.25;;
5981;SDS011;3018;48.730;9.336;2023-05-16T08:12:27;19.30;;;16.48;;
5981;SDS011;3018;48.730;9.336;2023-05-16T08:14:54;20.05;;;16.20;;
5981;SDS011;3018;48.730;9.336;2023-05-16T08:17:22;19.20;;;16.25;;
5981;SDS011;3018;48.730;9.336;2023-05-16T08:19:48;16.60;;;14.98;;
5981;SDS011;3018;48.730;9.336;2023-05-16T08:22:15;14.88;;;13.38;;
5981;SDS011;3018;48.730;9.336;2023-05-16T08:24:41;16.42;;;13.55;;
5981;SDS011;3018;48.730;9.336;2023-05-16T08:27:07;15.50;;;13.55;;
5981;SDS011;3018;48.730;9.336;2023-05-16T08:29:33;16.85;;;13.95;;
5981;SDS011;3018;48.730;9.336;2023-05-16T08:32:00;16.08;;;12.60;;
5981;SDS011;3018;48.730;9.336;2023-05-16T08:34:29;14.15;;;12.75;;
5981;SDS011;3018;48.730;9.336;2023-05-16T08:36:55;16.77;;;12.93;;
5981;SDS011;3018;48.730;9.336;2023-05-16T08:39:21;14.43;;;12.93;;
5981;SDS011;3018;48.730;9.336;2023-05-16T08:41:47;15.85;;;12.65;;
5981;SDS011;3018;48.730;9.336;2023-05-16T08:44:14;13.73;;;12.32;;
5981;SDS011;3018;48.730;9.336;2023-05-16T08:46:46;13.35;;;12.05;;
5981;SDS011;3018;48.730;9.336;2023-05-16T08:49:15;13.70;;;12.30;;
5981;SDS011;3018;48.730;9.336;2023-05-16T08:51:43;13.75;;;12.35;;
5981;SDS011;3018;48.730;9.336;2023-05-16T08:54:11;12.73;;;11.43;;
5981;SDS011;3018;48.730;9.336;2023-05-16T08:56:38;14.43;;;12.77;;
5981;SDS011;3018;48.730;9.336;2023-05-16T08:59:06;16.23;;;13.07;;
5981;SDS011;3018;48.730;9.336;2023-05-16T09:01:32;16.08;;;12.30;;
5981;SDS011;3018;48.730;9.336;2023-05-16T09:03:59;12.75;;;11.45;;
5981;SDS011;3018;48.730;9.336;2023-05-16T09:06:25;15.02;;;12.40;;
5981;SDS011;3018;48.730;9.336;2023-05-16T09:08:53;12.88;;;11.10;;
5981;SDS011;3018;48.730;9.336;2023-05-16T09:11:19;13.50;;;12.15;;
5981;SDS011;3018;48.730;9.336;2023-05-16T09:13:46;14.60;;;13.15;;
5981;SDS011;3018;48.730;9.336;2023-05-16T09:16:13;15.77;;;12.93;;
5981;SDS011;3018;48.730;9.336;2023-05-16T09:18:41;14.73;;;13.23;;
5981;SDS011;3018;48.730;9.336;2023-05-16T09:21:09;15.38;;;13.77;;
5981;SDS011;3018;48.730;9.336;2023-05-16T09:23:35;15.30;;;13.60;;
5981;SDS011;3018;48.730;9.336;2023-05-16T09:26:03;13.82;;;12.52;;
5981;SDS011;3018;48.730;9.336;2023-05-16T09:28:31;14.85;;;12.98;;
5981;SDS011;3018;48.730;9.336;2023-05-16T09:30:58;16.80;;;13.98;;
5981;SDS011;3018;48.730;9.336;2023-05-16T09:33:26;15.88;;;13.35;;
5981;SDS011;3018;48.730;9.336;2023-05-16T09:35:56;18.17;;;15.95;;
5981;SDS011;3018;48.730;9.336;2023-05-16T09:38:23;17.67;;;13.75;;
5981;SDS011;3018;48.730;9.336;2023-05-16T09:40:49;15.07;;;12.75;;
5981;SDS011;3018;48.730;9.336;2023-05-16T09:43:17;15.10;;;13.40;;
5981;SDS011;3018;48.730;9.336;2023-05-16T09:45:44;15.55;;;13.98;;
5981;SDS011;3018;48.730;9.336;2023-05-16T09:48:11;16.38;;;14.68;;
5981;SDS011;3018;48.730;9.336;2023-05-16T09:50:37;16.42;;;14.70;;
5981;SDS011;3018;48.730;9.336;2023-05-16T09:53:04;17.27;;;15.48;;
5981;SDS011;3018;48.730;9.336;2023-05-16T09:55:32;21.58;;;15.90;;
5981;SDS011;3018;48.730;9.336;2023-05-16T09:57:58;20.50;;;16.65;;
5981;SDS011;3018;48.730;9.336;2023-05-16T10:00:29;18.75;;;16.15;;
5981;SDS011;3018;48.730;9.336;2023-05-16T10:02:56;19.38;;;16.75;;
5981;SDS011;3018;48.730;9.336;2023-05-16T10:05:23;19.65;;;16.55;;
5981;SDS011;3018;48.730;9.336;2023-05-16T10:07:50;21.00;;;17.35;;
5981;SDS011;3018;48.730;9.336;2023-05-16T10:10:16;20.95;;;17.85;;
5981;SDS011;3018;48.730;9.336;2023-05-16T10:12:43;20.67;;;16.92;;
5981;SDS011;3018;48.730;9.336;2023-05-16T10:15:09;23.67;;;18.10;;
5981;SDS011;3018;48.730;9.336;2023-05-16T10:17:38;19.70;;;17.55;;
5981;SDS011;3018;48.730;9.336;2023-05-16T10:20:06;21.98;;;18.48;;
5981;SDS011;3018;48.730;9.336;2023-05-16T10:22:33;23.88;;;18.02;;
5981;SDS011;3018;48.730;9.336;2023-05-16T10:25:03;22.50;;;19.00;;
5981;SDS011;3018;48.730;9.336;2023-05-16T10:27:32;21.50;;;18.73;;
5981;SDS011;3018;48.730;9.336;2023-05-16T10:29:58;23.98;;;18.60;;
5981;SDS011;3018;48.730;9.336;2023-05-16T10:32:24;23.38;;;19.00;;
5981;SDS011;3018;48.730;9.336;2023-05-16T10:34:52;22.52;;;18.08;;
5981;SDS011;3018;48.730;9.336;2023-05-16T10:37:19;24.95;;;18.67;;
5981;SDS011;3018;48.730;9.336;2023-05-16T10:39:46;24.80;;;18.42;;
5981;SDS011;3018;48.730;9.336;2023-05-16T10:42:13;25.00;;;19.17;;
5981;SDS011;3018;48.730;9.336;2023-05-16T10:44:42;23.60;;;18.63;;
5981;SDS011;3018;48.730;9.336;2023-05-16T10:47:08;22.55;;;17.33;;
5981;SDS011;3018;48.730;9.336;2023-05-16T10:49:37;26.13;;;18.98;;
5981;SDS011;3018;48.730;9.336;2023-05-16T10:52:07;27.23;;;19.05;;
5981;SDS011;3018;48.730;9.336;2023-05-16T10:54:35;23.85;;;18.30;;
5981;SDS011;3018;48.730;9.336;2023-05-16T10:57:05;25.60;;;17.95;;
5981;SDS011;3018;48.730;9.336;2023-05-16T10:59:38;27.40;;;19.00;;
5981;SDS011;3018;48.730;9.336;2023-05-16T11:02:06;26.65;;;20.10;;
5981;SDS011;3018;48.730;9.336;2023-05-16T11:04:47;24.02;;;18.17;;
5981;SDS011;3018;48.730;9.336;2023-05-16T11:07:15;24.05;;;18.08;;
5981;SDS011;3018;48.730;9.336;2023-05-16T11:09:42;23.65;;;19.17;;
5981;SDS011;3018;48.730;9.336;2023-05-16T11:12:09;25.92;;;19.10;;
5981;SDS011;3018;48.730;9.336;2023-05-16T11:14:36;23.17;;;17.90;;
5981;SDS011;3018;48.730;9.336;2023-05-16T11:17:05;23.27;;;18.08;;
5981;SDS011;3018;48.730;9.336;2023-05-16T11:19:33;23.83;;;18.23;;
5981;SDS011;3018;48.730;9.336;2023-05-16T11:22:03;24.70;;;18.50;;
5981;SDS011;3018;48.730;9.336;2023-05-16T11:24:31;22.52;;;18.58;;
5981;SDS011;3018;48.730;9.336;2023-05-16T11:26:59;20.63;;;16.63;;
5981;SDS011;3018;48.730;9.336;2023-05-16T11:29:25;20.60;;;16.98;;
5981;SDS011;3018;48.730;9.336;2023-05-16T11:31:52;23.88;;;17.05;;
5981;SDS011;3018;48.730;9.336;2023-05-16T11:34:19;21.10;;;16.15;;
5981;SDS011;3018;48.730;9.336;2023-05-16T11:36:45;21.92;;;16.60;;
5981;SDS011;3018;48.730;9.336;2023-05-16T11:39:11;19.65;;;16.38;;
5981;SDS011;3018;48.730;9.336;2023-05-16T11:41:39;19.30;;;15.85;;
5981;SDS011;3018;48.730;9.336;2023-05-16T11:44:05;21.63;;;16.88;;
5981;SDS011;3018;48.730;9.336;2023-05-16T11:46:32;19.55;;;16.13;;
5981;SDS011;3018;48.730;9.336;2023-05-16T11:48:58;19.95;;;16.73;;
5981;SDS011;3018;48.730;9.336;2023-05-16T11:51:25;20.08;;;15.15;;
5981;SDS011;3018;48.730;9.336;2023-05-16T11:53:51;20.05;;;14.18;;
5981;SDS011;3018;48.730;9.336;2023-05-16T11:56:18;15.20;;;12.77;;
5981;SDS011;3018;48.730;9.336;2023-05-16T11:58:46;14.27;;;11.45;;
5981;SDS011;3018;48.730;9.336;2023-05-16T12:01:14;14.55;;;10.90;;
5981;SDS011;3018;48.730;9.336;2023-05-16T12:03:40;13.52;;;11.93;;
5981;SDS011;3018;48.730;9.336;2023-05-16T12:06:07;13.70;;;11.68;;
5981;SDS011;3018;48.730;9.336;2023-05-16T12:08:33;12.80;;;11.43;;
5981;SDS011;3018;48.730;9.336;2023-05-16T12:11:00;12.95;;;11.07;;
5981;SDS011;3018;48.730;9.336;2023-05-16T12:13:26;11.23;;;10.00;;
5981;SDS011;3018;48.730;9.336;2023-05-16T12:15:54;11.88;;;9.82;;
5981;SDS011;3018;48.730;9.336;2023-05-16T12:18:20;11.98;;;10.02;;
5981;SDS011;3018;48.730;9.336;2023-05-16T12:20:48;11.80;;;10.48;;
5981;SDS011;3018;48.730;9.336;2023-05-16T12:23:14;15.05;;;9.73;;
5981;SDS011;3018;48.730;9.336;2023-05-16T12:25:44;11.25;;;9.80;;
5981;SDS011;3018;48.730;9.336;2023-05-16T12:28:10;10.45;;;9.38;;
5981;SDS011;3018;48.730;9.336;2023-05-16T12:30:39;13.82;;;9.43;;
5981;SDS011;3018;48.730;9.336;2023-05-16T12:33:08;10.82;;;9.25;;
5981;SDS011;3018;48.730;9.336;2023-05-16T12:35:36;11.43;;;8.88;;
5981;SDS011;3018;48.730;9.336;2023-05-16T12:38:03;9.52;;;8.63;;
5981;SDS011;3018;48.730;9.336;2023-05-16T12:40:29;8.52;;;7.68;;
5981;SDS011;3018;48.730;9.336;2023-05-16T12:42:56;8.95;;;8.05;;
5981;SDS011;3018;48.730;9.336;2023-05-16T12:45:22;10.55;;;7.57;;
5981;SDS011;3018;48.730;9.336;2023-05-16T12:47:49;9.90;;;7.38;;
5981;SDS011;3018;48.730;9.336;2023-05-16T12:50:16;10.32;;;6.72;;
5981;SDS011;3018;48.730;9.336;2023-05-16T12:52:46;7.82;;;7.07;;
5981;SDS011;3018;48.730;9.336;2023-05-16T12:55:14;7.65;;;6.85;;
5981;SDS011;3018;48.730;9.336;2023-05-16T12:57:41;8.95;;;6.68;;
5981;SDS011;3018;48.730;9.336;2023-05-16T13:00:07;7.00;;;6.50;;
5981;SDS011;3018;48.730;9.336;2023-05-16T13:02:35;6.63;;;5.95;;
5981;SDS011;3018;48.730;9.336;2023-05-16T13:05:02;8.48;;;6.72;;
5981;SDS011;3018;48.730;9.336;2023-05-16T13:07:29;6.38;;;5.78;;
5981;SDS011;3018;48.730;9.336;2023-05-16T13:09:56;5.75;;;5.25;;
5981;SDS011;3018;48.730;9.336;2023-05-16T13:12:22;4.80;;;4.47;;
5981;SDS011;3018;48.730;9.336;2023-05-16T13:14:51;5.40;;;5.00;;
5981;SDS011;3018;48.730;9.336;2023-05-16T13:17:17;5.55;;;5.07;;
5981;SDS011;3018;48.730;9.336;2023-05-16T13:19:43;5.45;;;4.95;;
5981;SDS011;3018;48.730;9.336;2023-05-16T13:22:10;4.82;;;4.43;;
5981;SDS011;3018;48.730;9.336;2023-05-16T13:24:37;5.25;;;4.80;;
5981;SDS011;3018;48.730;9.336;2023-05-16T13:27:04;4.90;;;4.57;;
5981;SDS011;3018;48.730;9.336;2023-05-16T13:29:30;4.82;;;4.38;;
5981;SDS011;3018;48.730;9.336;2023-05-16T13:31:56;4.80;;;4.40;;
5981;SDS011;3018;48.730;9.336;2023-05-16T13:34:23;5.60;;;4.43;;
5981;SDS011;3018;48.730;9.336;2023-05-16T13:36:49;4.95;;;4.40;;
5981;SDS011;3018;48.730;9.336;2023-05-16T13:39:15;4.22;;;3.80;;
5981;SDS011;3018;48.730;9.336;2023-05-16T13:41:43;3.72;;;3.45;;
5981;SDS011;3018;48.730;9.336;2023-05-16T13:44:10;4.00;;;3.58;;
5981;SDS011;3018;48.730;9.336;2023-05-16T13:46:37;3.63;;;3.40;;
5981;SDS011;3018;48.730;9.336;2023-05-16T13:49:03;3.40;;;3.25;;
5981;SDS011;3018;48.730;9.336;2023-05-16T13:51:31;3.63;;;2.90;;
5981;SDS011;3018;48.730;9.336;2023-05-16T13:53:57;3.13;;;2.63;;
5981;SDS011;3018;48.730;9.336;2023-05-16T13:56:23;4.10;;;2.97;;
5981;SDS011;3018;48.730;9.336;2023-05-16T13:58:51;2.92;;;2.72;;
5981;SDS011;3018;48.730;9.336;2023-05-16T14:01:17;4.20;;;2.65;;
5981;SDS011;3018;48.730;9.336;2023-05-16T14:03:43;3.45;;;2.70;;
5981;SDS011;3018;48.730;9.336;2023-05-16T14:06:10;3.63;;;2.17;;
5981;SDS011;3018;48.730;9.336;2023-05-16T14:08:36;3.10;;;3.00;;
5981;SDS011;3018;48.730;9.336;2023-05-16T14:11:02;3.10;;;2.90;;
5981;SDS011;3018;48.730;9.336;2023-05-16T14:13:29;2.90;;;2.70;;
5981;SDS011;3018;48.730;9.336;2023-05-16T14:15:56;2.97;;;2.65;;
5981;SDS011;3018;48.730;9.336;2023-05-16T14:18:22;3.90;;;2.03;;
5981;SDS011;3018;48.730;9.336;2023-05-16T14:20:49;2.80;;;2.55;;
5981;SDS011;3018;48.730;9.336;2023-05-16T14:23:15;2.35;;;2.25;;
5981;SDS011;3018;48.730;9.336;2023-05-16T14:25:41;2.55;;;2.33;;
5981;SDS011;3018;48.730;9.336;2023-05-16T14:28:07;2.35;;;2.25;;
5981;SDS011;3018;48.730;9.336;2023-05-16T14:30:34;2.95;;;2.17;;
5981;SDS011;3018;48.730;9.336;2023-05-16T14:33:02;2.67;;;2.53;;
5981;SDS011;3018;48.730;9.336;2023-05-16T14:35:30;4.05;;;2.60;;
5981;SDS011;3018;48.730;9.336;2023-05-16T14:37:56;2.45;;;2.38;;
5981;SDS011;3018;48.730;9.336;2023-05-16T14:40:22;3.38;;;2.72;;
5981;SDS011;3018;48.730;9.336;2023-05-16T14:42:48;2.42;;;2.30;;
5981;SDS011;3018;48.730;9.336;2023-05-16T14:45:15;3.33;;;3.13;;
5981;SDS011;3018;48.730;9.336;2023-05-16T14:47:41;2.63;;;2.42;;
5981;SDS011;3018;48.730;9.336;2023-05-16T14:50:09;2.83;;;2.50;;
5981;SDS011;3018;48.730;9.336;2023-05-16T14:52:36;3.10;;;2.90;;